sensor_id;sensor_type;location;lat;lon;timestamp;P1;durP1;ratioP1;P2;durP2;ratioP2
43626;SDS011;29217;52.586;13.442;2022-12-18T00:01:44;44.60;;;13.82;;
43626;SDS011;29217;52.586;13.442;2022-12-18T00:04:19;35.72;;;12.88;;
43626;SDS011;29217;52.586;13.442;2022-12-18T00:06:46;28.10;;;11.10;;
43626;SDS011;29217;52.586;13.442;2022-12-18T00:09:12;32.70;;;11.52;;
43626;SDS011;29217;52.586;13.442;2022-12-18T00:11:37;34.92;;;12.45;;
43626;SDS011;29217;52.586;13.442;2022-12-18T00:14:03;31.45;;;11.95;;
43626;SDS011;29217;52.586;13.442;2022-12-18T00:16:29;28.42;;;11.65;;
43626;SDS011;29217;52.586;13.442;2022-12-18T00:18:57;35.78;;;12.68;;
43626;SDS011;29217;52.586;13.442;2022-12-18T00:21:24;29.80;;;12.05;;
43626;SDS011;29217;52.586;13.442;2022-12-18T00:23:50;34.08;;;11.57;;
43626;SDS011;29217;52.586;13.442;2022-12-18T00:26:17;27.75;;;11.02;;
43626;SDS011;29217;52.586;13.442;2022-12-18T00:28:48;32.67;;;12.40;;
43626;SDS011;29217;52.586;13.442;2022-12-18T00:31:17;31.70;;;12.02;;
43626;SDS011;29217;52.586;13.442;2022-12-18T00:33:47;32.03;;;11.68;;
43626;SDS011;29217;52.586;13.442;2022-12-18T00:36:14;27.88;;;10.57;;
43626;SDS011;29217;52.586;13.442;2022-12-18T00:38:42;31.48;;;9.30;;
43626;SDS011;29217;52.586;13.442;2022-12-18T00:41:08;37.80;;;12.73;;
43626;SDS011;29217;52.586;13.442;2022-12-18T00:43:36;31.00;;;10.90;;
43626;SDS011;29217;52.586;13.442;2022-12-18T00:46:03;28.88;;;11.23;;
43626;SDS011;29217;52.586;13.442;2022-12-18T00:48:29;21.15;;;9.05;;
43626;SDS011;29217;52.586;13.442;2022-12-18T00:50:55;34.38;;;11.60;;
43626;SDS011;29217;52.586;13.442;2022-12-18T00:53:20;27.83;;;10.07;;
43626;SDS011;29217;52.586;13.442;2022-12-18T00:55:46;25.85;;;10.75;;
43626;SDS011;29217;52.586;13.442;2022-12-18T00:58:12;28.77;;;10.63;;
43626;SDS011;29217;52.586;13.442;2022-12-18T01:00:39;26.38;;;10.52;;
43626;SDS011;29217;52.586;13.442;2022-12-18T01:03:05;30.58;;;10.57;;
43626;SDS011;29217;52.586;13.442;2022-12-18T01:05:31;33.85;;;11.82;;
43626;SDS011;29217;52.586;13.442;2022-12-18T01:07:57;34.05;;;11.15;;
43626;SDS011;29217;52.586;13.442;2022-12-18T01:10:23;30.38;;;10.38;;
43626;SDS011;29217;52.586;13.442;2022-12-18T01:12:49;25.88;;;9.73;;
43626;SDS011;29217;52.586;13.442;2022-12-18T01:15:15;26.55;;;10.35;;
43626;SDS011;29217;52.586;13.442;2022-12-18T01:17:41;29.15;;;9.80;;
43626;SDS011;29217;52.586;13.442;2022-12-18T01:20:08;30.25;;;10.48;;
43626;SDS011;29217;52.586;13.442;2022-12-18T01:22:35;20.70;;;8.82;;
43626;SDS011;29217;52.586;13.442;2022-12-18T01:25:01;26.15;;;10.02;;
43626;SDS011;29217;52.586;13.442;2022-12-18T01:27:28;28.83;;;9.85;;
43626;SDS011;29217;52.586;13.442;2022-12-18T01:29:53;29.55;;;9.82;;
43626;SDS011;29217;52.586;13.442;2022-12-18T01:32:19;33.00;;;11.13;;
43626;SDS011;29217;52.586;13.442;2022-12-18T01:34:45;24.70;;;8.60;;
43626;SDS011;29217;52.586;13.442;2022-12-18T01:37:10;24.80;;;9.38;;
43626;SDS011;29217;52.586;13.442;2022-12-18T01:39:36;25.10;;;9.50;;
43626;SDS011;29217;52.586;13.442;2022-12-18T01:42:02;24.92;;;9.80;;
43626;SDS011;29217;52.586;13.442;2022-12-18T01:50:15;30.05;;;9.90;;
43626;SDS011;29217;52.586;13.442;2022-12-18T01:52:50;32.72;;;11.02;;
43626;SDS011;29217;52.586;13.442;2022-12-18T01:55:18;30.15;;;10.05;;
43626;SDS011;29217;52.586;13.442;2022-12-18T01:57:47;33.25;;;11.50;;
43626;SDS011;29217;52.586;13.442;2022-12-18T02:00:16;28.13;;;10.43;;
43626;SDS011;29217;52.586;13.442;2022-12-18T02:02:44;35.65;;;11.57;;
43626;SDS011;29217;52.586;13.442;2022-12-18T02:05:11;31.90;;;10.73;;
43626;SDS011;29217;52.586;13.442;2022-12-18T02:07:42;31.88;;;11.30;;
43626;SDS011;29217;52.586;13.442;2022-12-18T02:11:24;31.45;;;11.18;;
43626;SDS011;29217;52.586;13.442;2022-12-18T02:19:21;22.75;;;8.57;;
43626;SDS011;29217;52.586;13.442;2022-12-18T02:27:39;26.10;;;11.23;;
43626;SDS011;29217;52.586;13.442;2022-12-18T02:30:06;22.02;;;9.07;;
43626;SDS011;29217;52.586;13.442;2022-12-18T02:32:37;30.85;;;10.85;;
43626;SDS011;29217;52.586;13.442;2022-12-18T02:35:07;26.48;;;10.73;;
43626;SDS011;29217;52.586;13.442;2022-12-18T02:37:37;32.25;;;10.48;;
43626;SDS011;29217;52.586;13.442;2022-12-18T02:40:05;35.83;;;11.85;;
43626;SDS011;29217;52.586;13.442;2022-12-18T02:42:32;32.75;;;11.75;;
43626;SDS011;29217;52.586;13.442;2022-12-18T02:44:57;39.80;;;12.68;;
43626;SDS011;29217;52.586;13.442;2022-12-18T02:47:24;29.90;;;12.15;;
43626;SDS011;29217;52.586;13.442;2022-12-18T03:00:31;44.03;;;13.43;;
43626;SDS011;29217;52.586;13.442;2022-12-18T03:03:14;44.05;;;14.15;;
43626;SDS011;29217;52.586;13.442;2022-12-18T03:05:52;39.42;;;11.90;;
43626;SDS011;29217;52.586;13.442;2022-12-18T03:08:22;34.67;;;12.38;;
43626;SDS011;29217;52.586;13.442;2022-12-18T03:10:53;42.75;;;13.07;;
43626;SDS011;29217;52.586;13.442;2022-12-18T03:13:33;47.80;;;14.30;;
43626;SDS011;29217;52.586;13.442;2022-12-18T03:16:14;39.88;;;14.00;;
43626;SDS011;29217;52.586;13.442;2022-12-18T03:18:47;47.90;;;13.80;;
43626;SDS011;29217;52.586;13.442;2022-12-18T03:21:17;37.55;;;13.32;;
43626;SDS011;29217;52.586;13.442;2022-12-18T03:23:48;53.08;;;16.38;;
43626;SDS011;29217;52.586;13.442;2022-12-18T03:26:16;42.83;;;13.85;;
43626;SDS011;29217;52.586;13.442;2022-12-18T03:28:49;46.83;;;16.00;;
43626;SDS011;29217;52.586;13.442;2022-12-18T03:31:18;54.55;;;14.07;;
43626;SDS011;29217;52.586;13.442;2022-12-18T03:33:54;50.28;;;15.80;;
43626;SDS011;29217;52.586;13.442;2022-12-18T03:36:22;50.40;;;13.80;;
43626;SDS011;29217;52.586;13.442;2022-12-18T03:38:48;46.28;;;14.13;;
43626;SDS011;29217;52.586;13.442;2022-12-18T03:43:50;50.47;;;15.77;;
43626;SDS011;29217;52.586;13.442;2022-12-18T03:46:30;55.22;;;15.38;;
43626;SDS011;29217;52.586;13.442;2022-12-18T03:52:03;45.92;;;13.77;;
43626;SDS011;29217;52.586;13.442;2022-12-18T03:54:32;44.95;;;14.68;;
43626;SDS011;29217;52.586;13.442;2022-12-18T03:57:01;48.00;;;15.00;;
43626;SDS011;29217;52.586;13.442;2022-12-18T03:59:32;47.25;;;15.43;;
43626;SDS011;29217;52.586;13.442;2022-12-18T04:01:59;31.48;;;12.18;;
43626;SDS011;29217;52.586;13.442;2022-12-18T04:04:26;38.67;;;13.43;;
43626;SDS011;29217;52.586;13.442;2022-12-18T04:06:53;45.15;;;12.85;;
43626;SDS011;29217;52.586;13.442;2022-12-18T04:09:19;36.00;;;11.68;;
43626;SDS011;29217;52.586;13.442;2022-12-18T04:11:46;39.30;;;12.30;;
43626;SDS011;29217;52.586;13.442;2022-12-18T04:14:12;35.80;;;11.50;;
43626;SDS011;29217;52.586;13.442;2022-12-18T04:16:38;41.47;;;13.48;;
43626;SDS011;29217;52.586;13.442;2022-12-18T04:19:04;32.00;;;12.10;;
43626;SDS011;29217;52.586;13.442;2022-12-18T04:21:29;39.30;;;12.98;;
43626;SDS011;29217;52.586;13.442;2022-12-18T04:23:55;40.30;;;12.88;;
43626;SDS011;29217;52.586;13.442;2022-12-18T04:26:21;32.72;;;11.05;;
43626;SDS011;29217;52.586;13.442;2022-12-18T04:28:46;31.65;;;12.60;;
43626;SDS011;29217;52.586;13.442;2022-12-18T04:31:12;29.52;;;10.27;;
43626;SDS011;29217;52.586;13.442;2022-12-18T04:33:38;39.00;;;12.55;;
43626;SDS011;29217;52.586;13.442;2022-12-18T04:36:03;32.42;;;12.68;;
43626;SDS011;29217;52.586;13.442;2022-12-18T04:38:29;40.80;;;12.57;;
43626;SDS011;29217;52.586;13.442;2022-12-18T04:40:55;29.48;;;10.32;;
43626;SDS011;29217;52.586;13.442;2022-12-18T04:43:20;39.65;;;12.85;;
43626;SDS011;29217;52.586;13.442;2022-12-18T04:45:46;31.17;;;11.02;;
43626;SDS011;29217;52.586;13.442;2022-12-18T04:48:11;33.45;;;11.35;;
43626;SDS011;29217;52.586;13.442;2022-12-18T04:50:37;25.73;;;10.52;;
43626;SDS011;29217;52.586;13.442;2022-12-18T04:53:03;26.45;;;8.85;;
43626;SDS011;29217;52.586;13.442;2022-12-18T04:55:29;29.23;;;11.45;;
43626;SDS011;29217;52.586;13.442;2022-12-18T04:57:54;39.80;;;12.02;;
43626;SDS011;29217;52.586;13.442;2022-12-18T05:00:20;28.98;;;11.18;;
43626;SDS011;29217;52.586;13.442;2022-12-18T05:02:46;31.77;;;11.80;;
43626;SDS011;29217;52.586;13.442;2022-12-18T05:05:12;25.75;;;9.82;;
43626;SDS011;29217;52.586;13.442;2022-12-18T05:07:38;27.95;;;9.43;;
43626;SDS011;29217;52.586;13.442;2022-12-18T05:10:03;28.77;;;10.68;;
43626;SDS011;29217;52.586;13.442;2022-12-18T05:12:32;31.23;;;10.50;;
43626;SDS011;29217;52.586;13.442;2022-12-18T05:14:58;24.77;;;11.00;;
43626;SDS011;29217;52.586;13.442;2022-12-18T05:17:23;32.33;;;10.23;;
43626;SDS011;29217;52.586;13.442;2022-12-18T05:19:49;30.67;;;9.88;;
43626;SDS011;29217;52.586;13.442;2022-12-18T05:22:14;26.70;;;10.98;;
43626;SDS011;29217;52.586;13.442;2022-12-18T05:24:40;31.50;;;11.48;;
43626;SDS011;29217;52.586;13.442;2022-12-18T05:27:06;33.33;;;9.98;;
43626;SDS011;29217;52.586;13.442;2022-12-18T05:29:31;33.38;;;11.10;;
43626;SDS011;29217;52.586;13.442;2022-12-18T05:31:57;32.17;;;11.23;;
43626;SDS011;29217;52.586;13.442;2022-12-18T05:34:22;27.15;;;9.18;;
43626;SDS011;29217;52.586;13.442;2022-12-18T05:36:48;30.58;;;10.15;;
43626;SDS011;29217;52.586;13.442;2022-12-18T05:39:14;27.08;;;10.25;;
43626;SDS011;29217;52.586;13.442;2022-12-18T05:41:39;29.17;;;9.77;;
43626;SDS011;29217;52.586;13.442;2022-12-18T05:44:05;32.65;;;10.98;;
43626;SDS011;29217;52.586;13.442;2022-12-18T05:46:30;33.85;;;10.23;;
43626;SDS011;29217;52.586;13.442;2022-12-18T05:48:58;37.10;;;12.63;;
43626;SDS011;29217;52.586;13.442;2022-12-18T05:51:25;28.02;;;10.07;;
43626;SDS011;29217;52.586;13.442;2022-12-18T05:53:51;34.55;;;11.57;;
43626;SDS011;29217;52.586;13.442;2022-12-18T05:56:19;28.00;;;10.80;;
43626;SDS011;29217;52.586;13.442;2022-12-18T05:58:46;27.67;;;11.48;;
43626;SDS011;29217;52.586;13.442;2022-12-18T06:01:16;43.08;;;13.60;;
43626;SDS011;29217;52.586;13.442;2022-12-18T06:03:44;31.02;;;11.50;;
43626;SDS011;29217;52.586;13.442;2022-12-18T06:08:42;28.67;;;10.35;;
43626;SDS011;29217;52.586;13.442;2022-12-18T06:11:08;27.67;;;11.65;;
43626;SDS011;29217;52.586;13.442;2022-12-18T06:13:34;40.67;;;12.63;;
43626;SDS011;29217;52.586;13.442;2022-12-18T06:16:01;28.77;;;11.07;;
43626;SDS011;29217;52.586;13.442;2022-12-18T06:18:28;40.90;;;11.55;;
43626;SDS011;29217;52.586;13.442;2022-12-18T06:20:55;35.33;;;12.55;;
43626;SDS011;29217;52.586;13.442;2022-12-18T06:23:21;36.75;;;11.63;;
43626;SDS011;29217;52.586;13.442;2022-12-18T06:25:47;35.30;;;10.90;;
43626;SDS011;29217;52.586;13.442;2022-12-18T06:28:12;39.33;;;10.27;;
43626;SDS011;29217;52.586;13.442;2022-12-18T06:30:38;39.45;;;11.65;;
43626;SDS011;29217;52.586;13.442;2022-12-18T06:33:03;35.38;;;12.15;;
43626;SDS011;29217;52.586;13.442;2022-12-18T06:35:29;45.05;;;14.43;;
43626;SDS011;29217;52.586;13.442;2022-12-18T06:37:54;43.88;;;13.95;;
43626;SDS011;29217;52.586;13.442;2022-12-18T06:40:20;42.08;;;12.90;;
43626;SDS011;29217;52.586;13.442;2022-12-18T06:42:46;49.00;;;13.23;;
43626;SDS011;29217;52.586;13.442;2022-12-18T06:45:11;42.10;;;12.43;;
43626;SDS011;29217;52.586;13.442;2022-12-18T06:47:40;36.92;;;12.32;;
43626;SDS011;29217;52.586;13.442;2022-12-18T06:50:05;38.08;;;12.43;;
43626;SDS011;29217;52.586;13.442;2022-12-18T06:52:32;43.30;;;13.32;;
43626;SDS011;29217;52.586;13.442;2022-12-18T06:54:57;41.03;;;14.35;;
43626;SDS011;29217;52.586;13.442;2022-12-18T06:57:23;41.28;;;12.18;;
43626;SDS011;29217;52.586;13.442;2022-12-18T06:59:49;35.42;;;12.35;;
43626;SDS011;29217;52.586;13.442;2022-12-18T07:02:14;33.97;;;11.35;;
43626;SDS011;29217;52.586;13.442;2022-12-18T07:04:40;33.47;;;13.02;;
43626;SDS011;29217;52.586;13.442;2022-12-18T07:07:05;33.72;;;10.85;;
43626;SDS011;29217;52.586;13.442;2022-12-18T07:09:31;31.92;;;11.88;;
43626;SDS011;29217;52.586;13.442;2022-12-18T07:11:56;33.60;;;11.02;;
43626;SDS011;29217;52.586;13.442;2022-12-18T07:14:22;35.05;;;13.52;;
43626;SDS011;29217;52.586;13.442;2022-12-18T07:16:48;48.38;;;13.68;;
43626;SDS011;29217;52.586;13.442;2022-12-18T07:19:13;40.63;;;12.43;;
43626;SDS011;29217;52.586;13.442;2022-12-18T07:21:39;35.72;;;13.13;;
43626;SDS011;29217;52.586;13.442;2022-12-18T07:24:05;39.78;;;12.40;;
43626;SDS011;29217;52.586;13.442;2022-12-18T07:26:31;33.70;;;12.07;;
43626;SDS011;29217;52.586;13.442;2022-12-18T07:28:56;35.03;;;11.18;;
43626;SDS011;29217;52.586;13.442;2022-12-18T07:31:22;41.75;;;12.75;;
43626;SDS011;29217;52.586;13.442;2022-12-18T07:33:49;39.70;;;12.13;;
43626;SDS011;29217;52.586;13.442;2022-12-18T07:36:16;40.85;;;12.85;;
43626;SDS011;29217;52.586;13.442;2022-12-18T07:38:42;37.75;;;13.07;;
43626;SDS011;29217;52.586;13.442;2022-12-18T07:41:11;40.78;;;12.82;;
43626;SDS011;29217;52.586;13.442;2022-12-18T07:43:38;37.10;;;12.80;;
43626;SDS011;29217;52.586;13.442;2022-12-18T07:46:05;35.55;;;10.68;;
43626;SDS011;29217;52.586;13.442;2022-12-18T07:48:30;29.08;;;12.77;;
43626;SDS011;29217;52.586;13.442;2022-12-18T07:51:03;37.95;;;12.05;;
43626;SDS011;29217;52.586;13.442;2022-12-18T07:53:30;37.38;;;12.07;;
43626;SDS011;29217;52.586;13.442;2022-12-18T07:55:56;48.90;;;14.95;;
43626;SDS011;29217;52.586;13.442;2022-12-18T07:58:22;31.83;;;11.60;;
43626;SDS011;29217;52.586;13.442;2022-12-18T08:00:48;33.83;;;11.50;;
43626;SDS011;29217;52.586;13.442;2022-12-18T08:03:14;29.38;;;10.65;;
43626;SDS011;29217;52.586;13.442;2022-12-18T08:05:39;34.33;;;11.15;;
43626;SDS011;29217;52.586;13.442;2022-12-18T08:08:05;36.17;;;11.27;;
43626;SDS011;29217;52.586;13.442;2022-12-18T08:10:31;44.33;;;11.93;;
43626;SDS011;29217;52.586;13.442;2022-12-18T08:12:56;35.63;;;12.10;;
43626;SDS011;29217;52.586;13.442;2022-12-18T08:15:22;38.45;;;12.60;;
43626;SDS011;29217;52.586;13.442;2022-12-18T08:17:48;37.22;;;12.75;;
43626;SDS011;29217;52.586;13.442;2022-12-18T08:20:14;46.95;;;13.75;;
43626;SDS011;29217;52.586;13.442;2022-12-18T08:22:43;31.67;;;11.13;;
43626;SDS011;29217;52.586;13.442;2022-12-18T08:25:09;38.80;;;10.90;;
43626;SDS011;29217;52.586;13.442;2022-12-18T08:27:35;41.75;;;13.23;;
43626;SDS011;29217;52.586;13.442;2022-12-18T08:30:01;33.15;;;10.82;;
43626;SDS011;29217;52.586;13.442;2022-12-18T08:32:28;31.25;;;13.18;;
43626;SDS011;29217;52.586;13.442;2022-12-18T08:34:53;33.63;;;12.70;;
43626;SDS011;29217;52.586;13.442;2022-12-18T08:37:19;33.45;;;11.68;;
43626;SDS011;29217;52.586;13.442;2022-12-18T08:39:44;34.83;;;11.90;;
43626;SDS011;29217;52.586;13.442;2022-12-18T08:42:10;32.28;;;11.43;;
43626;SDS011;29217;52.586;13.442;2022-12-18T08:44:55;36.40;;;11.98;;
43626;SDS011;29217;52.586;13.442;2022-12-18T08:47:20;36.35;;;10.93;;
43626;SDS011;29217;52.586;13.442;2022-12-18T08:49:46;35.42;;;11.25;;
43626;SDS011;29217;52.586;13.442;2022-12-18T08:52:14;34.10;;;11.57;;
43626;SDS011;29217;52.586;13.442;2022-12-18T08:54:40;24.75;;;10.25;;
43626;SDS011;29217;52.586;13.442;2022-12-18T08:57:05;35.83;;;12.23;;
43626;SDS011;29217;52.586;13.442;2022-12-18T08:59:31;32.72;;;11.07;;
43626;SDS011;29217;52.586;13.442;2022-12-18T09:01:57;28.88;;;10.38;;
43626;SDS011;29217;52.586;13.442;2022-12-18T09:04:22;34.55;;;11.75;;
43626;SDS011;29217;52.586;13.442;2022-12-18T09:06:48;24.42;;;9.90;;
43626;SDS011;29217;52.586;13.442;2022-12-18T09:09:14;26.85;;;10.13;;
43626;SDS011;29217;52.586;13.442;2022-12-18T09:11:39;26.73;;;9.52;;
43626;SDS011;29217;52.586;13.442;2022-12-18T09:14:05;28.65;;;10.68;;
43626;SDS011;29217;52.586;13.442;2022-12-18T09:16:31;32.17;;;11.80;;
43626;SDS011;29217;52.586;13.442;2022-12-18T09:18:59;34.63;;;10.95;;
43626;SDS011;29217;52.586;13.442;2022-12-18T09:21:28;26.33;;;9.77;;
43626;SDS011;29217;52.586;13.442;2022-12-18T09:23:58;22.85;;;10.40;;
43626;SDS011;29217;52.586;13.442;2022-12-18T09:26:24;39.90;;;11.93;;
43626;SDS011;29217;52.586;13.442;2022-12-18T09:28:51;28.52;;;11.20;;
43626;SDS011;29217;52.586;13.442;2022-12-18T09:31:17;33.05;;;12.95;;
43626;SDS011;29217;52.586;13.442;2022-12-18T09:33:44;30.67;;;11.93;;
43626;SDS011;29217;52.586;13.442;2022-12-18T09:36:11;47.30;;;14.10;;
43626;SDS011;29217;52.586;13.442;2022-12-18T09:38:39;35.97;;;11.27;;
43626;SDS011;29217;52.586;13.442;2022-12-18T09:41:05;26.67;;;11.35;;
43626;SDS011;29217;52.586;13.442;2022-12-18T09:43:58;29.17;;;11.07;;
43626;SDS011;29217;52.586;13.442;2022-12-18T09:46:37;30.20;;;11.60;;
43626;SDS011;29217;52.586;13.442;2022-12-18T09:49:11;25.55;;;11.15;;
43626;SDS011;29217;52.586;13.442;2022-12-18T09:51:41;31.20;;;11.55;;
43626;SDS011;29217;52.586;13.442;2022-12-18T09:54:19;33.03;;;10.35;;
43626;SDS011;29217;52.586;13.442;2022-12-18T09:56:51;30.95;;;9.98;;
43626;SDS011;29217;52.586;13.442;2022-12-18T10:01:56;30.63;;;11.20;;
43626;SDS011;29217;52.586;13.442;2022-12-18T10:04:21;35.15;;;10.98;;
43626;SDS011;29217;52.586;13.442;2022-12-18T10:25:50;29.80;;;10.57;;
43626;SDS011;29217;52.586;13.442;2022-12-18T10:28:24;36.63;;;11.77;;
43626;SDS011;29217;52.586;13.442;2022-12-18T10:30:51;38.40;;;12.63;;
43626;SDS011;29217;52.586;13.442;2022-12-18T10:33:18;35.55;;;12.13;;
43626;SDS011;29217;52.586;13.442;2022-12-18T10:35:46;30.73;;;13.15;;
43626;SDS011;29217;52.586;13.442;2022-12-18T10:48:30;39.42;;;12.02;;
43626;SDS011;29217;52.586;13.442;2022-12-18T10:50:57;28.65;;;9.52;;
43626;SDS011;29217;52.586;13.442;2022-12-18T10:53:25;36.65;;;9.48;;
43626;SDS011;29217;52.586;13.442;2022-12-18T10:55:54;35.92;;;12.18;;
43626;SDS011;29217;52.586;13.442;2022-12-18T11:06:17;36.60;;;11.02;;
43626;SDS011;29217;52.586;13.442;2022-12-18T11:09:05;27.45;;;11.70;;
43626;SDS011;29217;52.586;13.442;2022-12-18T11:12:18;30.05;;;10.38;;
43626;SDS011;29217;52.586;13.442;2022-12-18T11:14:46;25.35;;;9.85;;
43626;SDS011;29217;52.586;13.442;2022-12-18T11:17:32;35.85;;;12.85;;
43626;SDS011;29217;52.586;13.442;2022-12-18T11:20:04;33.05;;;11.18;;
43626;SDS011;29217;52.586;13.442;2022-12-18T11:22:33;34.67;;;11.82;;
43626;SDS011;29217;52.586;13.442;2022-12-18T11:27:31;33.42;;;11.30;;
43626;SDS011;29217;52.586;13.442;2022-12-18T11:30:20;30.08;;;11.15;;
43626;SDS011;29217;52.586;13.442;2022-12-18T11:32:53;33.38;;;10.43;;
43626;SDS011;29217;52.586;13.442;2022-12-18T11:38:20;30.13;;;11.30;;
43626;SDS011;29217;52.586;13.442;2022-12-18T11:40:51;26.17;;;10.48;;
43626;SDS011;29217;52.586;13.442;2022-12-18T11:43:28;26.80;;;9.57;;
43626;SDS011;29217;52.586;13.442;2022-12-18T11:46:03;35.00;;;11.65;;
43626;SDS011;29217;52.586;13.442;2022-12-18T11:48:35;31.33;;;12.13;;
43626;SDS011;29217;52.586;13.442;2022-12-18T11:51:04;24.65;;;9.85;;
43626;SDS011;29217;52.586;13.442;2022-12-18T11:53:34;30.55;;;10.90;;
43626;SDS011;29217;52.586;13.442;2022-12-18T11:58:47;32.92;;;11.10;;
43626;SDS011;29217;52.586;13.442;2022-12-18T12:09:42;24.77;;;9.82;;
43626;SDS011;29217;52.586;13.442;2022-12-18T12:20:25;37.15;;;11.98;;
43626;SDS011;29217;52.586;13.442;2022-12-18T12:23:33;32.72;;;11.00;;
43626;SDS011;29217;52.586;13.442;2022-12-18T12:26:28;34.40;;;12.38;;
43626;SDS011;29217;52.586;13.442;2022-12-18T12:29:14;28.75;;;10.00;;
43626;SDS011;29217;52.586;13.442;2022-12-18T12:31:57;29.35;;;11.27;;
43626;SDS011;29217;52.586;13.442;2022-12-18T12:41:16;31.00;;;10.65;;
43626;SDS011;29217;52.586;13.442;2022-12-18T12:44:05;20.77;;;9.25;;
43626;SDS011;29217;52.586;13.442;2022-12-18T12:46:35;20.73;;;9.02;;
43626;SDS011;29217;52.586;13.442;2022-12-18T12:49:04;27.83;;;10.43;;
43626;SDS011;29217;52.586;13.442;2022-12-18T12:51:38;21.38;;;10.63;;
43626;SDS011;29217;52.586;13.442;2022-12-18T12:54:21;29.48;;;11.18;;
43626;SDS011;29217;52.586;13.442;2022-12-18T13:00:00;29.80;;;11.13;;
43626;SDS011;29217;52.586;13.442;2022-12-18T13:08:31;23.95;;;9.32;;
43626;SDS011;29217;52.586;13.442;2022-12-18T13:11:28;26.58;;;10.05;;
43626;SDS011;29217;52.586;13.442;2022-12-18T13:14:28;25.23;;;9.52;;
43626;SDS011;29217;52.586;13.442;2022-12-18T13:17:24;20.80;;;9.43;;
43626;SDS011;29217;52.586;13.442;2022-12-18T13:22:30;28.70;;;9.63;;
43626;SDS011;29217;52.586;13.442;2022-12-18T13:25:00;31.70;;;11.15;;
43626;SDS011;29217;52.586;13.442;2022-12-18T13:43:57;27.67;;;9.25;;
43626;SDS011;29217;52.586;13.442;2022-12-18T13:46:47;30.75;;;9.82;;
43626;SDS011;29217;52.586;13.442;2022-12-18T13:51:55;19.98;;;9.10;;
43626;SDS011;29217;52.586;13.442;2022-12-18T13:54:32;29.95;;;10.20;;
43626;SDS011;29217;52.586;13.442;2022-12-18T13:57:05;22.02;;;9.00;;
43626;SDS011;29217;52.586;13.442;2022-12-18T13:59:51;31.83;;;11.63;;
43626;SDS011;29217;52.586;13.442;2022-12-18T14:02:19;25.10;;;10.15;;
43626;SDS011;29217;52.586;13.442;2022-12-18T14:04:47;22.10;;;10.25;;
43626;SDS011;29217;52.586;13.442;2022-12-18T14:07:18;25.85;;;11.10;;
43626;SDS011;29217;52.586;13.442;2022-12-18T14:09:54;25.75;;;10.90;;
43626;SDS011;29217;52.586;13.442;2022-12-18T14:20:20;38.92;;;16.20;;
43626;SDS011;29217;52.586;13.442;2022-12-18T14:22:48;33.72;;;12.85;;
43626;SDS011;29217;52.586;13.442;2022-12-18T14:25:23;30.92;;;12.00;;
43626;SDS011;29217;52.586;13.442;2022-12-18T14:30:31;28.77;;;11.50;;
43626;SDS011;29217;52.586;13.442;2022-12-18T14:33:04;23.17;;;9.02;;
43626;SDS011;29217;52.586;13.442;2022-12-18T14:35:35;27.65;;;12.15;;
43626;SDS011;29217;52.586;13.442;2022-12-18T14:38:09;25.88;;;11.55;;
43626;SDS011;29217;52.586;13.442;2022-12-18T14:40:41;29.77;;;12.32;;
43626;SDS011;29217;52.586;13.442;2022-12-18T14:43:10;28.38;;;10.77;;
43626;SDS011;29217;52.586;13.442;2022-12-18T14:45:37;21.35;;;8.57;;
43626;SDS011;29217;52.586;13.442;2022-12-18T14:48:15;28.80;;;9.82;;
43626;SDS011;29217;52.586;13.442;2022-12-18T14:50:41;26.88;;;9.63;;
43626;SDS011;29217;52.586;13.442;2022-12-18T14:53:20;25.05;;;9.98;;
43626;SDS011;29217;52.586;13.442;2022-12-18T14:56:13;25.73;;;9.82;;
43626;SDS011;29217;52.586;13.442;2022-12-18T15:01:25;29.67;;;10.52;;
43626;SDS011;29217;52.586;13.442;2022-12-18T15:04:01;31.38;;;9.82;;
43626;SDS011;29217;52.586;13.442;2022-12-18T15:06:32;25.35;;;9.80;;
43626;SDS011;29217;52.586;13.442;2022-12-18T15:09:00;17.67;;;9.15;;
43626;SDS011;29217;52.586;13.442;2022-12-18T15:11:54;25.85;;;10.05;;
43626;SDS011;29217;52.586;13.442;2022-12-18T15:14:22;24.63;;;10.52;;
43626;SDS011;29217;52.586;13.442;2022-12-18T15:17:05;21.75;;;9.55;;
43626;SDS011;29217;52.586;13.442;2022-12-18T15:19:42;22.95;;;9.60;;
43626;SDS011;29217;52.586;13.442;2022-12-18T15:22:16;26.25;;;11.50;;
43626;SDS011;29217;52.586;13.442;2022-12-18T15:24:58;24.48;;;10.43;;
43626;SDS011;29217;52.586;13.442;2022-12-18T15:27:29;27.48;;;10.57;;
43626;SDS011;29217;52.586;13.442;2022-12-18T15:30:01;23.73;;;10.40;;
43626;SDS011;29217;52.586;13.442;2022-12-18T15:32:30;29.17;;;11.02;;
43626;SDS011;29217;52.586;13.442;2022-12-18T15:37:36;25.73;;;10.38;;
43626;SDS011;29217;52.586;13.442;2022-12-18T15:40:05;18.65;;;8.50;;
43626;SDS011;29217;52.586;13.442;2022-12-18T15:42:31;23.27;;;9.32;;
43626;SDS011;29217;52.586;13.442;2022-12-18T15:45:15;19.95;;;9.23;;
43626;SDS011;29217;52.586;13.442;2022-12-18T15:47:41;21.58;;;8.35;;
43626;SDS011;29217;52.586;13.442;2022-12-18T15:50:07;18.35;;;9.35;;
43626;SDS011;29217;52.586;13.442;2022-12-18T15:52:36;26.10;;;10.38;;
43626;SDS011;29217;52.586;13.442;2022-12-18T15:55:13;18.58;;;8.77;;
43626;SDS011;29217;52.586;13.442;2022-12-18T15:57:58;19.15;;;9.18;;
43626;SDS011;29217;52.586;13.442;2022-12-18T16:00:24;19.63;;;9.38;;
43626;SDS011;29217;52.586;13.442;2022-12-18T16:02:49;18.52;;;8.95;;
43626;SDS011;29217;52.586;13.442;2022-12-18T16:05:16;23.50;;;9.63;;
43626;SDS011;29217;52.586;13.442;2022-12-18T16:07:43;23.20;;;10.27;;
43626;SDS011;29217;52.586;13.442;2022-12-18T16:10:10;28.98;;;11.68;;
43626;SDS011;29217;52.586;13.442;2022-12-18T16:12:35;21.13;;;10.07;;
43626;SDS011;29217;52.586;13.442;2022-12-18T16:15:02;20.65;;;9.00;;
43626;SDS011;29217;52.586;13.442;2022-12-18T16:17:29;26.90;;;10.90;;
43626;SDS011;29217;52.586;13.442;2022-12-18T16:19:55;22.15;;;10.10;;
43626;SDS011;29217;52.586;13.442;2022-12-18T16:22:21;21.30;;;10.57;;
43626;SDS011;29217;52.586;13.442;2022-12-18T16:24:49;27.25;;;10.45;;
43626;SDS011;29217;52.586;13.442;2022-12-18T16:27:15;22.80;;;10.00;;
43626;SDS011;29217;52.586;13.442;2022-12-18T16:29:41;12.82;;;8.60;;
43626;SDS011;29217;52.586;13.442;2022-12-18T16:32:08;16.50;;;9.00;;
43626;SDS011;29217;52.586;13.442;2022-12-18T16:34:38;22.80;;;10.15;;
43626;SDS011;29217;52.586;13.442;2022-12-18T16:37:05;27.45;;;10.52;;
43626;SDS011;29217;52.586;13.442;2022-12-18T16:39:32;21.60;;;9.13;;
43626;SDS011;29217;52.586;13.442;2022-12-18T16:41:59;27.90;;;10.45;;
43626;SDS011;29217;52.586;13.442;2022-12-18T16:44:25;25.55;;;10.60;;
43626;SDS011;29217;52.586;13.442;2022-12-18T16:46:51;22.27;;;11.00;;
43626;SDS011;29217;52.586;13.442;2022-12-18T16:49:17;17.23;;;8.00;;
43626;SDS011;29217;52.586;13.442;2022-12-18T16:51:45;21.35;;;10.23;;
43626;SDS011;29217;52.586;13.442;2022-12-18T16:54:11;24.48;;;10.30;;
43626;SDS011;29217;52.586;13.442;2022-12-18T16:56:37;18.90;;;7.60;;
43626;SDS011;29217;52.586;13.442;2022-12-18T16:59:03;24.55;;;11.13;;